Time;durP1;ratioP1;P1;durP2;ratioP2;P2;SDS_P1;SDS_P2;PMS_P1;PMS_P2;Temp;Humidity;BMP_temperature;BMP_pressure;BME280_temperature;BME280_humidity;BME280_pressure;Samples;Min_cycle;Max_cycle;Signal;HPM_P1;HPM_P2
2024/03/14 00:00:47;0.00;0.00;0.62;0.00;0.00;0.62;3.20;2.47;;;23.10;25.10;;;;;;2249217;61;20360;-64
2024/03/14 00:03:13;0.00;0.00;0.62;0.00;0.00;0.62;3.10;2.43;;;23.10;25.10;;;;;;2251003;61;20392;-64
2024/03/14 00:05:39;0.00;0.00;0.62;0.00;0.00;0.62;2.67;2.07;;;23.10;25.10;;;;;;2256383;61;20373;-65
2024/03/14 00:08:06;0.00;0.00;0.62;0.00;0.00;0.62;2.93;2.50;;;23.10;25.10;;;;;;2256429;61;20353;-63
2024/03/14 00:10:33;0.00;0.00;0.62;0.00;0.00;0.62;3.10;2.43;;;23.10;25.10;;;;;;2256141;61;20351;-64
2024/03/14 00:12:59;0.00;0.00;0.62;0.00;0.00;0.62;2.90;2.20;;;23.10;25.10;;;;;;2253321;61;20349;-64
2024/03/14 00:15:25;0.00;0.00;0.62;0.00;0.00;0.62;3.07;2.10;;;23.10;25.10;;;;;;2253064;61;20373;-63
2024/03/14 00:17:51;0.00;0.00;0.62;0.00;0.00;0.62;2.53;2.33;;;23.10;25.10;;;;;;2252132;61;20362;-64
2024/03/14 00:20:19;0.00;0.00;0.62;0.00;0.00;0.62;2.93;2.27;;;23.10;25.10;;;;;;2252450;61;20437;-64
2024/03/14 00:22:46;0.00;0.00;0.62;0.00;0.00;0.62;2.33;2.10;;;23.10;25.20;;;;;;2252771;61;20357;-63
2024/03/14 00:25:12;0.00;0.00;0.62;0.00;0.00;0.62;2.90;2.50;;;23.10;25.20;;;;;;2252750;61;20432;-64
2024/03/14 00:27:39;0.00;0.00;0.62;0.00;0.00;0.62;2.47;2.00;;;23.10;25.10;;;;;;2253225;61;20879;-63
2024/03/14 00:30:11;0.00;0.00;0.62;0.00;0.00;0.62;2.43;1.80;;;23.10;25.10;;;;;;2253211;61;20341;-64
2024/03/14 00:32:37;0.00;0.00;0.62;0.00;0.00;0.62;2.50;1.80;;;23.10;25.10;;;;;;2253899;61;20410;-64
2024/03/14 00:35:04;0.00;0.00;0.62;0.00;0.00;0.62;2.37;2.00;;;23.10;25.20;;;;;;2256346;61;20365;-64
2024/03/14 00:37:30;0.00;0.00;0.62;0.00;0.00;0.62;3.40;2.30;;;23.10;25.10;;;;;;2256344;61;20437;-65
2024/03/14 00:39:56;0.00;0.00;0.62;0.00;0.00;0.62;2.43;1.80;;;23.10;25.10;;;;;;2256767;61;20415;-64
2024/03/14 00:42:24;0.00;0.00;0.62;0.00;0.00;0.62;3.50;2.23;;;23.10;25.10;;;;;;2253978;61;20353;-64
2024/03/14 00:44:51;0.00;0.00;0.62;0.00;0.00;0.62;2.50;2.23;;;23.10;25.10;;;;;;2253652;61;20383;-64
2024/03/14 00:47:17;0.00;0.00;0.62;0.00;0.00;0.62;2.40;2.00;;;23.10;25.20;;;;;;2252907;61;20521;-64
2024/03/14 00:49:44;0.00;0.00;0.62;0.00;0.00;0.62;3.07;2.37;;;23.10;25.10;;;;;;2252957;61;20350;-63
2024/03/14 00:52:11;0.00;0.00;0.62;0.00;0.00;0.62;3.77;2.60;;;23.20;25.20;;;;;;2253169;61;20354;-65
2024/03/14 00:54:38;0.00;0.00;0.62;0.00;0.00;0.62;2.83;2.13;;;23.10;25.10;;;;;;2253432;61;20349;-64
2024/03/14 00:57:04;0.00;0.00;0.62;0.00;0.00;0.62;2.40;2.20;;;23.10;25.10;;;;;;2256341;61;20338;-65
2024/03/14 00:59:30;0.00;0.00;0.62;0.00;0.00;0.62;2.93;2.17;;;23.10;25.10;;;;;;2256212;61;20354;-64
2024/03/14 01:01:57;0.00;0.00;0.62;0.00;0.00;0.62;2.67;2.10;;;23.10;25.10;;;;;;2256776;61;20392;-64
2024/03/14 01:04:23;0.00;0.00;0.62;0.00;0.00;0.62;2.53;2.00;;;23.10;25.10;;;;;;2253679;61;20446;-64
2024/03/14 01:06:52;0.00;0.00;0.62;0.00;0.00;0.62;2.60;2.17;;;23.10;25.10;;;;;;2253687;61;20461;-63
2024/03/14 01:09:24;0.00;0.00;0.62;0.00;0.00;0.62;2.80;2.23;;;23.10;25.10;;;;;;2253328;61;20346;-64
2024/03/14 01:11:52;0.00;0.00;0.62;0.00;0.00;0.62;3.10;2.43;;;23.10;25.10;;;;;;2256644;61;20875;-64
2024/03/14 01:14:19;0.00;0.00;0.62;0.00;0.00;0.62;2.17;1.73;;;23.10;25.10;;;;;;2256398;61;20445;-64
2024/03/14 01:16:49;0.00;0.00;0.62;0.00;0.00;0.62;2.50;1.97;;;23.10;25.80;;;;;;2255956;61;20443;-64
2024/03/14 01:19:16;0.00;0.00;0.62;0.00;0.00;0.62;2.90;1.90;;;23.10;25.20;;;;;;2250055;61;20393;-61
2024/03/14 01:21:43;0.00;0.00;0.62;0.00;0.00;0.62;2.63;2.17;;;23.20;25.20;;;;;;2249786;61;20362;-63
2024/03/14 01:24:10;0.00;0.00;0.62;0.00;0.00;0.62;2.37;1.87;;;23.20;25.20;;;;;;2250576;61;20403;-63
2024/03/14 01:26:36;0.00;0.00;0.62;0.00;0.00;0.62;2.37;1.90;;;23.20;25.80;;;;;;2257080;61;20373;-63
2024/03/14 01:29:04;0.00;0.00;0.62;0.00;0.00;0.62;2.23;1.70;;;23.20;25.20;;;;;;2256867;61;20855;-65
2024/03/14 01:31:32;0.00;0.00;0.62;0.00;0.00;0.62;2.70;2.07;;;23.10;25.20;;;;;;2255960;61;20369;-64
2024/03/14 01:33:59;0.00;0.00;0.62;0.00;0.00;0.62;2.17;1.87;;;23.10;25.10;;;;;;2252783;61;20347;-64
2024/03/14 01:36:25;0.00;0.00;0.62;0.00;0.00;0.62;2.17;1.97;;;23.10;25.20;;;;;;2252954;61;20377;-64
2024/03/14 01:38:51;0.00;0.00;0.62;0.00;0.00;0.62;2.83;2.20;;;23.10;25.20;;;;;;2252808;61;20354;-64
2024/03/14 01:41:20;0.00;0.00;0.62;0.00;0.00;0.62;2.30;1.60;;;23.10;25.20;;;;;;2252926;61;20385;-64
2024/03/14 01:43:59;0.00;0.00;0.62;0.00;0.00;0.62;2.53;1.90;;;23.20;25.20;;;;;;2249597;61;20354;-64
2024/03/14 01:46:26;0.00;0.00;0.62;0.00;0.00;0.62;2.63;2.20;;;23.20;25.20;;;;;;2253438;61;20392;-64
2024/03/14 01:48:53;0.00;0.00;0.62;0.00;0.00;0.62;2.73;1.93;;;23.20;25.20;;;;;;2256133;61;20361;-64
2024/03/14 01:51:19;0.00;0.00;0.62;0.00;0.00;0.62;2.73;2.07;;;23.10;25.10;;;;;;2256157;61;20349;-64
2024/03/14 01:53:46;0.00;0.00;0.62;0.00;0.00;0.62;3.00;2.70;;;23.20;25.30;;;;;;2256599;61;20418;-64
2024/03/14 01:56:12;0.00;0.00;0.62;0.00;0.00;0.62;2.97;2.23;;;23.20;25.20;;;;;;2253316;61;20376;-62
2024/03/14 01:58:39;0.00;0.00;0.62;0.00;0.00;0.62;2.40;2.10;;;23.20;25.20;;;;;;2253621;61;20356;-63
2024/03/14 02:01:05;0.00;0.00;0.62;0.00;0.00;0.62;2.70;1.90;;;23.20;25.20;;;;;;2252820;61;20342;-64
2024/03/14 02:03:31;0.00;0.00;0.62;0.00;0.00;0.62;2.50;2.10;;;23.20;25.80;;;;;;2256035;61;20441;-64
2024/03/14 02:06:00;0.00;0.00;0.62;0.00;0.00;0.62;2.37;1.70;;;23.20;25.20;;;;;;2256695;61;20423;-64
2024/03/14 02:08:26;0.00;0.00;0.62;0.00;0.00;0.62;2.00;1.60;;;23.10;25.20;;;;;;2252801;61;20433;-64
2024/03/14 02:10:53;0.00;0.00;0.62;0.00;0.00;0.62;2.37;1.97;;;23.20;25.80;;;;;;2250140;61;20381;-64
2024/03/14 02:13:19;0.00;0.00;0.62;0.00;0.00;0.62;2.57;2.27;;;23.20;25.20;;;;;;2256898;61;20415;-63
2024/03/14 02:15:46;0.00;0.00;0.62;0.00;0.00;0.62;2.50;1.80;;;23.20;25.20;;;;;;2256762;61;20376;-65
2024/03/14 02:18:13;0.00;0.00;0.62;0.00;0.00;0.62;2.70;1.80;;;23.20;25.20;;;;;;2256783;61;20878;-64
2024/03/14 02:20:39;0.00;0.00;0.62;0.00;0.00;0.62;2.60;1.63;;;23.20;25.20;;;;;;2255922;61;20363;-64
2024/03/14 02:23:06;0.00;0.00;0.62;0.00;0.00;0.62;2.60;1.90;;;23.20;25.20;;;;;;2256869;61;20349;-67
2024/03/14 02:25:32;0.00;0.00;0.62;0.00;0.00;0.62;2.77;1.90;;;23.20;25.20;;;;;;2256648;61;20489;-64
2024/03/14 02:27:58;0.00;0.00;0.62;0.00;0.00;0.62;2.40;1.90;;;23.10;25.20;;;;;;2256420;61;20360;-64
2024/03/14 02:30:25;0.00;0.00;0.62;0.00;0.00;0.62;2.50;2.07;;;23.20;25.30;;;;;;2256773;61;20345;-63
2024/03/14 02:32:51;0.00;0.00;0.62;0.00;0.00;0.62;2.67;2.37;;;23.20;25.20;;;;;;2256741;61;20353;-64
2024/03/14 02:35:17;0.00;0.00;0.62;0.00;0.00;0.62;2.20;1.77;;;23.20;25.30;;;;;;2256863;61;20365;-64
2024/03/14 02:37:44;0.00;0.00;0.62;0.00;0.00;0.62;2.83;2.30;;;23.20;25.20;;;;;;2256129;61;20738;-63
2024/03/14 02:40:11;0.00;0.00;0.62;0.00;0.00;0.62;2.07;1.67;;;23.20;25.20;;;;;;2246283;61;20902;-64
2024/03/14 02:42:37;0.00;0.00;0.62;0.00;0.00;0.62;2.23;2.03;;;23.20;25.20;;;;;;2249447;61;20861;-64
2024/03/14 02:45:07;0.00;0.00;0.62;0.00;0.00;0.62;2.40;1.90;;;23.20;25.30;;;;;;2253005;61;20431;-64
2024/03/14 02:47:35;0.00;0.00;0.62;0.00;0.00;0.62;2.17;1.80;;;23.20;25.20;;;;;;2256954;61;20414;-64
2024/03/14 02:50:02;0.00;0.00;0.62;0.00;0.00;0.62;2.90;2.20;;;23.20;25.20;;;;;;2253737;61;20349;-64
2024/03/14 02:52:28;0.00;0.00;0.62;0.00;0.00;0.62;2.10;1.50;;;23.10;25.20;;;;;;2252644;61;20553;-64
2024/03/14 02:54:55;0.00;0.00;0.62;0.00;0.00;0.62;2.30;1.90;;;23.20;25.80;;;;;;2252687;61;20366;-64
2024/03/14 02:57:22;0.00;0.00;0.62;0.00;0.00;0.62;1.90;1.50;;;23.20;25.20;;;;;;2252769;61;20887;-64
2024/03/14 02:59:48;0.00;0.00;0.62;0.00;0.00;0.62;2.30;2.00;;;23.10;25.20;;;;;;2252452;61;20382;-64
2024/03/14 03:02:15;0.00;0.00;0.62;0.00;0.00;0.62;2.27;1.80;;;23.20;25.20;;;;;;2252626;61;20419;-64
2024/03/14 03:04:44;0.00;0.00;0.62;0.00;0.00;0.62;2.43;1.80;;;23.20;25.70;;;;;;2252504;61;20476;-64
2024/03/14 03:07:10;0.00;0.00;0.62;0.00;0.00;0.62;2.00;1.60;;;23.20;25.20;;;;;;2255618;61;20883;-64
2024/03/14 03:09:38;0.00;0.00;0.62;0.00;0.00;0.62;3.10;1.87;;;23.20;25.20;;;;;;2255865;61;20358;-64
2024/03/14 03:12:04;0.00;0.00;0.62;0.00;0.00;0.62;2.30;1.90;;;23.20;25.20;;;;;;2255909;61;20372;-64
2024/03/14 03:14:31;0.00;0.00;0.62;0.00;0.00;0.62;2.00;1.50;;;23.20;25.30;;;;;;2255592;61;20369;-65
2024/03/14 03:16:57;0.00;0.00;0.62;0.00;0.00;0.62;1.90;1.60;;;23.20;25.20;;;;;;2246092;61;21157;-64
2024/03/14 03:19:24;0.00;0.00;0.62;0.00;0.00;0.62;2.50;1.80;;;23.20;25.20;;;;;;2249334;61;20354;-64
2024/03/14 03:21:50;0.00;0.00;0.62;0.00;0.00;0.62;2.30;1.93;;;23.20;25.80;;;;;;2252695;61;20603;-64
2024/03/14 03:24:16;0.00;0.00;0.62;0.00;0.00;0.62;2.17;1.60;;;23.20;25.30;;;;;;2256515;61;20395;-64
2024/03/14 03:26:43;0.00;0.00;0.62;0.00;0.00;0.62;2.37;1.70;;;23.20;25.20;;;;;;2256568;61;20377;-64
2024/03/14 03:29:12;0.00;0.00;0.62;0.00;0.00;0.62;2.23;1.53;;;23.20;25.20;;;;;;2255633;61;20350;-64
2024/03/14 03:31:38;0.00;0.00;0.62;0.00;0.00;0.62;1.70;1.30;;;23.20;25.20;;;;;;2249453;61;20457;-64
2024/03/14 03:34:07;0.00;0.00;0.62;0.00;0.00;0.62;2.30;1.80;;;23.20;25.20;;;;;;2249354;61;20404;-64
2024/03/14 03:36:33;0.00;0.00;0.62;0.00;0.00;0.62;2.27;1.57;;;23.20;25.20;;;;;;2248749;61;20378;-64
2024/03/14 03:39:00;0.00;0.00;0.62;0.00;0.00;0.62;2.30;1.80;;;23.20;25.20;;;;;;2252636;61;20352;-64
2024/03/14 03:41:29;0.00;0.00;0.62;0.00;0.00;0.62;2.17;1.87;;;23.20;25.20;;;;;;2252662;61;20350;-64
2024/03/14 03:43:56;0.00;0.00;0.62;0.00;0.00;0.62;2.33;1.90;;;23.20;25.20;;;;;;2252366;61;20806;-64
2024/03/14 03:46:22;0.00;0.00;0.62;0.00;0.00;0.62;1.93;1.47;;;23.20;25.70;;;;;;2252492;61;20385;-64
2024/03/14 03:48:49;0.00;0.00;0.62;0.00;0.00;0.62;3.10;1.83;;;23.20;25.30;;;;;;2252659;61;20381;-64
2024/03/14 03:51:18;0.00;0.00;0.62;0.00;0.00;0.62;2.50;2.00;;;23.20;25.30;;;;;;2253091;61;20391;-64
2024/03/14 03:53:45;0.00;0.00;0.62;0.00;0.00;0.62;1.80;1.50;;;23.20;25.30;;;;;;2253627;61;20735;-64
2024/03/14 03:56:11;0.00;0.00;0.62;0.00;0.00;0.62;2.30;1.80;;;23.20;25.30;;;;;;2253041;61;20959;-63
2024/03/14 03:58:38;0.00;0.00;0.62;0.00;0.00;0.62;2.23;1.93;;;23.20;25.30;;;;;;2254709;61;20393;-64
2024/03/14 04:01:11;0.00;0.00;0.62;0.00;0.00;0.62;1.90;1.40;;;23.20;25.20;;;;;;2255796;61;20357;-64
2024/03/14 04:03:40;0.00;0.00;0.62;0.00;0.00;0.62;2.30;1.80;;;23.20;25.20;;;;;;2255933;61;20445;-63
2024/03/14 04:06:10;0.00;0.00;0.62;0.00;0.00;0.62;1.90;1.53;;;23.20;25.30;;;;;;2255680;61;20781;-63
2024/03/14 04:08:37;0.00;0.00;0.62;0.00;0.00;0.62;2.20;1.83;;;23.20;25.30;;;;;;2249634;61;20437;-63
2024/03/14 04:11:05;0.00;0.00;0.62;0.00;0.00;0.62;2.00;1.67;;;23.20;25.30;;;;;;2252234;61;20882;-61
2024/03/14 04:13:33;0.00;0.00;0.62;0.00;0.00;0.62;1.83;1.50;;;23.20;25.30;;;;;;2255336;61;20350;-64
2024/03/14 04:16:00;0.00;0.00;0.62;0.00;0.00;0.62;2.00;1.63;;;23.20;25.30;;;;;;2255751;61;20783;-62
2024/03/14 04:18:29;0.00;0.00;0.62;0.00;0.00;0.62;1.70;1.33;;;23.20;25.30;;;;;;2255762;61;20350;-64
2024/03/14 04:20:56;0.00;0.00;0.62;0.00;0.00;0.62;2.77;1.77;;;23.20;25.30;;;;;;2256483;61;20398;-63
2024/03/14 04:23:24;0.00;0.00;0.62;0.00;0.00;0.62;1.80;1.40;;;23.20;25.30;;;;;;2249896;61;20866;-64
2024/03/14 04:25:51;0.00;0.00;0.62;0.00;0.00;0.62;2.00;1.50;;;23.20;25.30;;;;;;2253215;61;20411;-64
2024/03/14 04:28:18;0.00;0.00;0.62;0.00;0.00;0.62;2.00;1.67;;;23.20;25.30;;;;;;2255004;61;20362;-63
2024/03/14 04:30:45;0.00;0.00;0.62;0.00;0.00;0.62;1.80;1.50;;;23.20;25.30;;;;;;2255674;61;20894;-64
2024/03/14 04:33:12;0.00;0.00;0.62;0.00;0.00;0.62;2.17;1.70;;;23.20;25.30;;;;;;2255737;61;20750;-63
2024/03/14 04:35:40;0.00;0.00;0.62;0.00;0.00;0.62;1.70;1.40;;;23.20;25.30;;;;;;2255776;61;20382;-64
2024/03/14 04:38:06;0.00;0.00;0.62;0.00;0.00;0.62;2.43;1.57;;;23.20;25.30;;;;;;2252369;61;20467;-61
2024/03/14 04:40:32;0.00;0.00;0.62;0.00;0.00;0.62;1.97;1.43;;;23.20;25.30;;;;;;2252346;61;20426;-65
2024/03/14 04:42:59;0.00;0.00;0.62;0.00;0.00;0.62;2.20;1.57;;;23.20;25.30;;;;;;2254782;61;20436;-64
2024/03/14 04:45:25;0.00;0.00;0.62;0.00;0.00;0.62;2.33;1.70;;;23.10;25.70;;;;;;2255476;61;20369;-64
2024/03/14 04:47:52;0.00;0.00;0.62;0.00;0.00;0.62;1.80;1.60;;;23.20;25.30;;;;;;2252385;61;20350;-63
2024/03/14 04:50:21;0.00;0.00;0.62;0.00;0.00;0.62;1.93;1.47;;;23.20;25.30;;;;;;2255486;61;20426;-64
2024/03/14 04:52:48;0.00;0.00;0.62;0.00;0.00;0.62;2.10;1.57;;;23.20;25.30;;;;;;2249530;61;20803;-64
2024/03/14 04:55:17;0.00;0.00;0.62;0.00;0.00;0.62;1.63;1.27;;;23.20;25.30;;;;;;2249206;61;20369;-63
2024/03/14 04:57:46;0.00;0.00;0.62;0.00;0.00;0.62;2.30;1.70;;;23.20;25.30;;;;;;2252188;61;20357;-64
2024/03/14 05:02:45;0.00;0.00;0.62;0.00;0.00;0.62;2.77;1.40;;;23.20;25.30;;;;;;2253760;61;20403;-63
2024/03/14 05:05:11;0.00;0.00;0.62;0.00;0.00;0.62;2.47;1.77;;;23.20;25.30;;;;;;2254519;61;20451;-63
2024/03/14 05:07:37;0.00;0.00;0.62;0.00;0.00;0.62;2.30;1.87;;;23.20;25.30;;;;;;2255747;61;20359;-62
2024/03/14 05:10:05;0.00;0.00;0.62;0.00;0.00;0.62;2.20;1.60;;;23.20;25.30;;;;;;2256221;61;20357;-63
2024/03/14 05:12:31;0.00;0.00;0.62;0.00;0.00;0.62;2.10;1.63;;;23.10;25.20;;;;;;2256972;61;20981;-63
2024/03/14 05:14:58;0.00;0.00;0.62;0.00;0.00;0.62;2.47;1.87;;;23.20;25.30;;;;;;2253705;61;20380;-62
2024/03/14 05:17:24;0.00;0.00;0.62;0.00;0.00;0.62;2.43;1.90;;;23.20;25.30;;;;;;2253664;61;20357;-63
2024/03/14 05:19:50;0.00;0.00;0.62;0.00;0.00;0.62;2.00;1.60;;;23.20;25.30;;;;;;2252703;61;20739;-61
2024/03/14 05:22:17;0.00;0.00;0.62;0.00;0.00;0.62;2.00;1.57;;;23.20;25.30;;;;;;2253003;61;20512;-61
2024/03/14 05:24:43;0.00;0.00;0.62;0.00;0.00;0.62;2.00;1.43;;;23.20;25.30;;;;;;2252889;61;20449;-64
2024/03/14 05:27:10;0.00;0.00;0.62;0.00;0.00;0.62;2.30;1.63;;;23.20;25.30;;;;;;2254935;61;20368;-63
2024/03/14 05:29:38;0.00;0.00;0.62;0.00;0.00;0.62;2.53;2.17;;;23.20;25.30;;;;;;2256324;61;20382;-64
2024/03/14 05:32:05;0.00;0.00;0.62;0.00;0.00;0.62;2.57;2.10;;;23.20;25.30;;;;;;2256130;61;20354;-64
2024/03/14 05:34:32;0.00;0.00;0.62;0.00;0.00;0.62;2.63;2.00;;;23.20;25.30;;;;;;2256123;61;20960;-66
2024/03/14 05:36:58;0.00;0.00;0.62;0.00;0.00;0.62;2.30;1.77;;;23.20;25.30;;;;;;2249776;61;20360;-64
2024/03/14 05:39:25;0.00;0.00;0.62;0.00;0.00;0.62;2.90;2.40;;;23.20;25.30;;;;;;2249489;61;20362;-64
2024/03/14 05:41:51;0.00;0.00;0.62;0.00;0.00;0.62;3.13;2.57;;;23.20;25.30;;;;;;2252216;61;20350;-63
2024/03/14 05:44:17;0.00;0.00;0.62;0.00;0.00;0.62;4.10;2.47;;;23.20;25.30;;;;;;2257031;61;20356;-64
2024/03/14 05:46:46;0.00;0.00;0.62;0.00;0.00;0.62;3.93;2.90;;;23.20;25.30;;;;;;2256843;61;20365;-65
2024/03/14 05:49:13;0.00;0.00;0.62;0.00;0.00;0.62;3.53;2.80;;;23.20;25.30;;;;;;2256851;61;20811;-64
2024/03/14 05:51:39;0.00;0.00;0.62;0.00;0.00;0.62;4.00;3.40;;;23.20;25.30;;;;;;2253759;61;20391;-63
2024/03/14 05:54:05;0.00;0.00;0.62;0.00;0.00;0.62;5.37;3.83;;;23.10;25.20;;;;;;2253830;61;20414;-63
2024/03/14 05:56:33;0.00;0.00;0.62;0.00;0.00;0.62;4.30;3.57;;;23.20;25.30;;;;;;2252481;61;20382;-63
2024/03/14 05:58:59;0.00;0.00;0.62;0.00;0.00;0.62;5.67;4.70;;;23.20;25.30;;;;;;2250023;61;20346;-63
2024/03/14 06:01:27;0.00;0.00;0.62;0.00;0.00;0.62;7.33;4.97;;;23.20;25.30;;;;;;2252778;61;20743;-63
2024/03/14 06:03:54;0.00;0.00;0.62;0.00;0.00;0.62;6.70;5.40;;;23.20;25.30;;;;;;2254273;61;20458;-62
2024/03/14 06:06:20;0.00;0.00;0.62;0.00;0.00;0.62;7.03;5.00;;;23.20;25.80;;;;;;2256112;61;20879;-63
2024/03/14 06:08:46;0.00;0.00;0.62;0.00;0.00;0.62;6.73;5.50;;;23.20;25.30;;;;;;2256029;61;20861;-65
2024/03/14 06:11:14;0.00;0.00;0.62;0.00;0.00;0.62;8.07;6.10;;;23.20;25.30;;;;;;2252595;61;20431;-63
2024/03/14 06:13:41;0.00;0.00;0.62;0.00;0.00;0.62;7.87;6.40;;;23.20;25.40;;;;;;2249949;61;20850;-64
2024/03/14 06:16:09;0.00;0.00;0.62;0.00;0.00;0.62;7.67;6.50;;;23.20;25.30;;;;;;2249416;61;20671;-64
2024/03/14 06:18:35;0.00;0.00;0.62;0.00;0.00;0.62;9.20;6.60;;;23.10;25.30;;;;;;2250971;61;20369;-64
2024/03/14 06:21:02;0.00;0.00;0.62;0.00;0.00;0.62;8.10;7.30;;;23.20;25.30;;;;;;2252781;61;20358;-64
2024/03/14 06:23:28;0.00;0.00;0.62;0.00;0.00;0.62;8.77;6.70;;;23.20;25.30;;;;;;2252872;61;20361;-63
2024/03/14 06:25:54;0.00;0.00;0.62;0.00;0.00;0.62;6.87;6.17;;;23.20;25.30;;;;;;2253052;61;20373;-63
2024/03/14 06:28:23;0.00;0.00;0.62;0.00;0.00;0.62;8.37;7.33;;;23.20;25.40;;;;;;2253588;61;20360;-64
2024/03/14 06:30:49;0.00;0.00;0.62;0.00;0.00;0.62;9.17;7.00;;;23.10;25.30;;;;;;2253666;61;20406;-62
2024/03/14 06:33:15;0.00;0.00;0.62;0.00;0.00;0.62;8.13;6.80;;;23.20;25.40;;;;;;2252445;61;20351;-63
2024/03/14 06:35:42;0.00;0.00;0.62;0.00;0.00;0.62;8.33;7.27;;;23.20;25.30;;;;;;2252873;61;20424;-63
2024/03/14 06:38:08;0.00;0.00;0.62;0.00;0.00;0.62;9.20;8.03;;;23.20;25.40;;;;;;2252689;61;20903;-62
2024/03/14 06:40:34;0.00;0.00;0.62;0.00;0.00;0.62;8.87;7.33;;;23.20;25.30;;;;;;2253512;61;20358;-61
2024/03/14 06:43:01;0.00;0.00;0.62;0.00;0.00;0.62;9.33;8.13;;;23.20;25.40;;;;;;2256114;61;20350;-62
2024/03/14 06:45:27;0.00;0.00;0.62;0.00;0.00;0.62;8.77;7.87;;;23.20;25.30;;;;;;2255702;61;20795;-65
2024/03/14 06:47:54;0.00;0.00;0.62;0.00;0.00;0.62;9.73;8.20;;;23.20;25.30;;;;;;2255767;61;20358;-64
2024/03/14 06:50:21;0.00;0.00;0.62;0.00;0.00;0.62;10.57;8.20;;;23.20;25.30;;;;;;2249735;61;20355;-61
2024/03/14 06:52:48;0.00;0.00;0.62;0.00;0.00;0.62;9.33;7.80;;;23.20;25.30;;;;;;2249602;61;20390;-62
2024/03/14 06:55:15;0.00;0.00;0.62;0.00;0.00;0.62;10.10;8.10;;;23.20;25.30;;;;;;2250789;61;20377;-62
2024/03/14 06:57:45;0.00;0.00;0.62;0.00;0.00;0.62;10.40;8.30;;;23.20;25.30;;;;;;2253449;61;20872;-65
2024/03/14 07:00:12;0.00;0.00;0.62;0.00;0.00;0.62;9.30;8.33;;;23.20;25.40;;;;;;2253688;61;20357;-62
2024/03/14 07:02:40;0.00;0.00;0.62;0.00;0.00;0.62;9.20;8.20;;;23.20;25.40;;;;;;2253328;61;20883;-63
2024/03/14 07:05:14;0.00;0.00;0.62;0.00;0.00;0.62;10.03;9.00;;;23.20;25.40;;;;;;2255936;61;20821;-63
2024/03/14 07:07:42;0.00;0.00;0.62;0.00;0.00;0.62;11.30;9.10;;;23.20;25.90;;;;;;2256095;61;20846;-63
2024/03/14 07:10:08;0.00;0.00;0.62;0.00;0.00;0.62;7.97;7.07;;;23.20;25.40;;;;;;2255599;61;20875;-63
2024/03/14 07:12:35;0.00;0.00;0.62;0.00;0.00;0.62;9.50;8.17;;;23.20;25.40;;;;;;2252964;61;20393;-63
2024/03/14 07:15:03;0.00;0.00;0.62;0.00;0.00;0.62;9.47;8.37;;;23.20;25.40;;;;;;2252629;61;20382;-64
2024/03/14 07:17:29;0.00;0.00;0.62;0.00;0.00;0.62;10.90;9.30;;;23.20;25.40;;;;;;2249204;61;20404;-63
2024/03/14 07:19:55;0.00;0.00;0.62;0.00;0.00;0.62;12.37;10.17;;;23.20;25.40;;;;;;2252579;61;20350;-63
2024/03/14 07:22:25;0.00;0.00;0.62;0.00;0.00;0.62;12.13;9.47;;;23.20;25.40;;;;;;2252632;61;20415;-61
2024/03/14 07:24:53;0.00;0.00;0.62;0.00;0.00;0.62;12.10;9.07;;;23.20;25.40;;;;;;2249099;61;20370;-64
2024/03/14 07:27:20;0.00;0.00;0.62;0.00;0.00;0.62;10.03;8.90;;;23.20;25.40;;;;;;2252865;61;20366;-61
2024/03/14 07:29:47;0.00;0.00;0.62;0.00;0.00;0.62;12.63;10.60;;;23.20;25.40;;;;;;2249321;61;20395;-64
2024/03/14 07:32:17;0.00;0.00;0.62;0.00;0.00;0.62;12.23;10.10;;;23.20;25.90;;;;;;2253022;61;20345;-62
2024/03/14 07:34:44;0.00;0.00;0.62;0.00;0.00;0.62;12.73;10.90;;;23.20;25.40;;;;;;2252787;61;20346;-61
2024/03/14 07:37:14;0.00;0.00;0.62;0.00;0.00;0.62;10.90;9.37;;;23.20;25.40;;;;;;2252629;61;20354;-64
2024/03/14 07:39:40;0.00;0.00;0.62;0.00;0.00;0.62;11.77;10.50;;;23.20;25.40;;;;;;2255628;61;20353;-63
2024/03/14 07:42:07;0.00;0.00;0.62;0.00;0.00;0.62;12.70;11.20;;;23.20;25.40;;;;;;2252679;61;20353;-63
2024/03/14 07:44:34;0.00;0.00;0.62;0.00;0.00;0.62;11.87;9.97;;;23.20;25.40;;;;;;2252464;61;20875;-61
2024/03/14 07:47:01;0.00;0.00;0.62;0.00;0.00;0.62;12.47;10.00;;;23.20;25.40;;;;;;2250524;61;20369;-60
2024/03/14 07:49:27;0.00;0.00;0.62;0.00;0.00;0.62;10.90;9.63;;;23.20;25.40;;;;;;2256943;61;20440;-63
2024/03/14 07:51:55;0.00;0.00;0.62;0.00;0.00;0.62;13.57;11.17;;;23.20;25.40;;;;;;2253173;61;20875;-62
2024/03/14 07:54:22;0.00;0.00;0.62;0.00;0.00;0.62;11.93;10.40;;;23.20;25.40;;;;;;2256416;61;20418;-65
2024/03/14 07:56:51;0.00;0.00;0.62;0.00;0.00;0.62;13.17;10.30;;;23.20;25.40;;;;;;2256718;61;20372;-64
2024/03/14 07:59:18;0.00;0.00;0.62;0.00;0.00;0.62;11.60;9.33;;;23.20;25.50;;;;;;2256828;61;20498;-61
2024/03/14 08:01:44;0.00;0.00;0.62;0.00;0.00;0.62;11.17;10.07;;;23.20;25.40;;;;;;2252361;61;20357;-63
2024/03/14 08:04:13;0.00;0.00;0.62;0.00;0.00;0.62;12.03;10.20;;;23.20;25.40;;;;;;2252470;61;20361;-63
2024/03/14 08:06:43;0.00;0.00;0.62;0.00;0.00;0.62;12.20;10.80;;;23.20;25.50;;;;;;2252673;61;20384;-62
2024/03/14 08:09:12;0.00;0.00;0.62;0.00;0.00;0.62;12.77;10.77;;;23.20;25.50;;;;;;2252619;61;20364;-63
2024/03/14 08:11:41;0.00;0.00;0.62;0.00;0.00;0.62;12.37;9.70;;;23.20;25.50;;;;;;2252751;61;20418;-62
2024/03/14 08:14:07;0.00;0.00;0.62;0.00;0.00;0.62;11.43;9.83;;;23.20;25.50;;;;;;2252766;61;20370;-63
2024/03/14 08:16:35;0.00;0.00;0.62;0.00;0.00;0.62;13.17;10.93;;;23.20;25.50;;;;;;2252221;61;20436;-63
2024/03/14 08:19:02;0.00;0.00;0.62;0.00;0.00;0.62;11.47;10.27;;;23.20;25.50;;;;;;2252818;61;20350;-61
2024/03/14 08:21:29;0.00;0.00;0.62;0.00;0.00;0.62;10.40;9.40;;;23.20;25.50;;;;;;2252324;61;20445;-63
2024/03/14 08:23:58;0.00;0.00;0.62;0.00;0.00;0.62;11.50;9.43;;;23.20;25.50;;;;;;2252058;61;20812;-63
2024/03/14 08:26:24;0.00;0.00;0.62;0.00;0.00;0.62;10.87;9.50;;;23.20;25.50;;;;;;2252674;61;20436;-62
2024/03/14 08:28:54;0.00;0.00;0.62;0.00;0.00;0.62;11.23;9.83;;;23.20;25.50;;;;;;2252422;61;20822;-62
2024/03/14 08:31:21;0.00;0.00;0.62;0.00;0.00;0.62;10.27;8.80;;;23.20;25.50;;;;;;2252339;61;20385;-61
2024/03/14 08:33:50;0.00;0.00;0.62;0.00;0.00;0.62;12.67;10.37;;;23.20;25.50;;;;;;2252733;61;20465;-63
2024/03/14 08:36:17;0.00;0.00;0.62;0.00;0.00;0.62;11.17;9.33;;;23.20;25.50;;;;;;2252762;61;20370;-63
2024/03/14 08:38:44;0.00;0.00;0.62;0.00;0.00;0.62;11.93;9.80;;;23.20;25.50;;;;;;2252343;61;20350;-65
2024/03/14 08:41:13;0.00;0.00;0.62;0.00;0.00;0.62;10.63;9.10;;;23.20;25.50;;;;;;2252533;61;20339;-64
2024/03/14 08:43:40;0.00;0.00;0.62;0.00;0.00;0.62;10.17;8.60;;;23.20;25.50;;;;;;2252887;61;20382;-64
2024/03/14 08:46:06;0.00;0.00;0.62;0.00;0.00;0.62;9.90;8.20;;;23.20;25.50;;;;;;2252600;61;20378;-64
2024/03/14 08:48:33;0.00;0.00;0.62;0.00;0.00;0.62;9.57;8.23;;;23.20;25.50;;;;;;2253244;61;20773;-64
2024/03/14 08:51:00;0.00;0.00;0.62;0.00;0.00;0.62;8.90;7.83;;;23.20;26.10;;;;;;2253175;61;20349;-64
2024/03/14 08:53:36;0.00;0.00;0.62;0.00;0.00;0.62;9.07;8.10;;;23.20;25.50;;;;;;2253305;61;20360;-64
2024/03/14 08:56:07;0.00;0.00;0.62;0.00;0.00;0.62;10.10;8.23;;;23.20;25.50;;;;;;2256767;61;20904;-64
2024/03/14 08:58:33;0.00;0.00;0.62;0.00;0.00;0.62;10.17;8.47;;;23.20;25.50;;;;;;2256439;61;21320;-63
2024/03/14 09:01:03;0.00;0.00;0.62;0.00;0.00;0.62;8.43;7.40;;;23.20;25.50;;;;;;2255937;61;20350;-65
2024/03/14 09:03:29;0.00;0.00;0.62;0.00;0.00;0.62;8.67;7.40;;;23.20;25.60;;;;;;2253432;61;20353;-63
2024/03/14 09:05:55;0.00;0.00;0.62;0.00;0.00;0.62;9.50;8.50;;;23.20;25.60;;;;;;2252949;61;20374;-63
2024/03/14 09:08:24;0.00;0.00;0.62;0.00;0.00;0.62;9.70;7.50;;;23.20;25.60;;;;;;2252781;61;20716;-62
2024/03/14 09:10:53;0.00;0.00;0.62;0.00;0.00;0.62;10.00;8.40;;;23.20;25.60;;;;;;2253211;61;20396;-65
2024/03/14 09:13:19;0.00;0.00;0.62;0.00;0.00;0.62;8.63;7.73;;;23.20;25.60;;;;;;2253438;61;20872;-64
2024/03/14 09:15:50;0.00;0.00;0.62;0.00;0.00;0.62;7.93;7.13;;;23.20;25.50;;;;;;2252692;61;20385;-63
2024/03/14 09:18:17;0.00;0.00;0.62;0.00;0.00;0.62;8.80;7.83;;;23.20;25.50;;;;;;2253450;61;20459;-62
2024/03/14 09:20:44;0.00;0.00;0.62;0.00;0.00;0.62;8.00;6.40;;;23.20;25.50;;;;;;2253235;61;20358;-63
2024/03/14 09:23:16;0.00;0.00;0.62;0.00;0.00;0.62;7.93;7.03;;;23.30;25.60;;;;;;2250306;61;20388;-65
2024/03/14 09:25:42;0.00;0.00;0.62;0.00;0.00;0.62;8.27;7.40;;;23.20;25.50;;;;;;2253202;61;20442;-63
2024/03/14 09:28:11;0.00;0.00;0.62;0.00;0.00;0.62;8.40;7.37;;;23.30;25.60;;;;;;2256331;61;20860;-63
2024/03/14 09:30:37;0.00;0.00;0.62;0.00;0.00;0.62;8.10;6.63;;;23.30;25.60;;;;;;2253542;61;20863;-62
2024/03/14 09:33:06;0.00;0.00;0.62;0.00;0.00;0.62;6.50;5.87;;;23.30;25.60;;;;;;2253889;61;20361;-62
2024/03/14 09:35:33;0.00;0.00;0.62;0.00;0.00;0.62;9.83;7.60;;;23.30;26.10;;;;;;2254117;61;20369;-61
2024/03/14 09:37:59;0.00;0.00;0.62;0.00;0.00;0.62;8.13;6.80;;;23.30;25.60;;;;;;2252665;61;20818;-62
2024/03/14 09:40:26;0.00;0.00;0.62;0.00;0.00;0.62;8.10;6.37;;;23.30;25.60;;;;;;2253160;61;20378;-63
2024/03/14 09:42:56;0.00;0.00;0.62;0.00;0.00;0.62;8.17;6.83;;;23.30;25.60;;;;;;2253170;61;20357;-62